Time;durP1;ratioP1;P1;durP2;ratioP2;P2;SDS_P1;SDS_P2;PMS_P1;PMS_P2;Temp;Humidity;BMP_temperature;BMP_pressure;BME280_temperature;BME280_humidity;BME280_pressure;Samples;Min_cycle;Max_cycle;Signal;HPM_P1;HPM_P2
2022/10/31 00:01:31;;;;;;;8.45;2.05;;;;;;;11.80;100.00;99651.91;5005427;28;20041;-81
2022/10/31 00:03:57;;;;;;;9.77;1.80;;;;;;;12.02;100.00;99676.72;5006269;28;20034;-80
2022/10/31 00:06:23;;;;;;;9.27;1.77;;;;;;;12.01;100.00;99671.53;5005536;28;20494;-81
2022/10/31 00:09:01;;;;;;;18.70;2.72;;;;;;;12.03;100.00;99664.09;4984729;28;20033;-79
2022/10/31 00:11:26;;;;;;;10.43;2.17;;;;;;;12.02;100.00;99671.34;5041885;28;20040;-80
2022/10/31 00:13:52;;;;;;;9.48;2.00;;;;;;;12.01;100.00;99676.94;5004748;28;20033;-78
2022/10/31 00:16:23;;;;;;;10.70;2.33;;;;;;;12.03;100.00;99677.56;5011597;28;20045;-79
2022/10/31 00:18:54;;;;;;;8.15;1.77;;;;;;;11.98;100.00;99669.28;5003007;28;20074;-80
2022/10/31 00:21:20;;;;;;;10.85;2.10;;;;;;;11.94;100.00;99657.28;5016242;28;20387;-81
2022/10/31 00:23:47;;;;;;;4.35;1.23;;;;;;;11.97;100.00;99663.06;5017017;28;20038;-79
2022/10/31 00:26:12;;;;;;;13.02;2.70;;;;;;;11.93;100.00;99642.13;5021191;28;20040;-79
2022/10/31 00:28:38;;;;;;;9.57;2.05;;;;;;;12.10;100.00;99657.63;5017864;28;20037;-79
2022/10/31 00:31:07;;;;;;;14.55;1.88;;;;;;;12.04;100.00;99644.16;5008366;28;20116;-79
2022/10/31 00:33:36;;;;;;;9.07;1.92;;;;;;;12.04;100.00;99646.88;5005478;28;20041;-80
2022/10/31 00:36:02;;;;;;;9.95;2.53;;;;;;;12.06;100.00;99637.53;4984566;28;20025;-78
2022/10/31 00:38:28;;;;;;;5.63;1.50;;;;;;;12.15;100.00;99637.31;5037007;28;20052;-78
2022/10/31 00:40:54;;;;;;;10.82;2.55;;;;;;;12.09;100.00;99644.34;4989970;28;20479;-79
2022/10/31 00:43:20;;;;;;;9.98;1.85;;;;;;;12.06;100.00;99653.69;4988416;28;20369;-82
2022/10/31 00:45:45;;;;;;;7.10;1.90;;;;;;;12.02;100.00;99640.88;5017408;28;20069;-78
2022/10/31 00:48:11;;;;;;;10.00;2.08;;;;;;;11.95;100.00;99646.28;5003397;28;20056;-78
2022/10/31 00:50:37;;;;;;;4.10;1.55;;;;;;;12.02;100.00;99638.19;5018697;28;20103;-81
2022/10/31 00:53:03;;;;;;;10.52;2.20;;;;;;;12.04;100.00;99636.09;5016949;28;20040;-79
2022/10/31 00:55:29;;;;;;;9.43;2.08;;;;;;;12.16;100.00;99639.78;5019161;28;20407;-77
2022/10/31 00:57:54;;;;;;;15.85;2.53;;;;;;;12.19;100.00;99628.56;5020058;28;20079;-78
2022/10/31 01:00:20;;;;;;;9.20;2.15;;;;;;;12.23;100.00;99623.59;4999803;28;20580;-78
2022/10/31 01:02:46;;;;;;;14.35;2.58;;;;;;;12.38;100.00;99642.16;5008231;28;20550;-77
2022/10/31 01:05:12;;;;;;;15.85;2.90;;;;;;;12.43;100.00;99645.88;5020926;28;20049;-82
2022/10/31 01:07:39;;;;;;;10.35;2.10;;;;;;;12.48;100.00;99627.19;5016330;28;20048;-77
2022/10/31 01:10:06;;;;;;;13.32;2.30;;;;;;;12.46;100.00;99610.41;5016563;28;20163;-77
2022/10/31 01:12:43;;;;;;;6.82;2.28;;;;;;;12.59;100.00;99628.38;5003851;28;20037;-78
2022/10/31 01:15:11;;;;;;;13.13;2.40;;;;;;;12.68;100.00;99623.56;5017953;28;20124;-77
2022/10/31 01:17:37;;;;;;;16.15;1.88;;;;;;;12.70;100.00;99621.44;5019739;28;20045;-80
2022/10/31 01:20:04;;;;;;;14.70;2.35;;;;;;;12.63;100.00;99621.50;5004442;28;20336;-78
2022/10/31 01:22:30;;;;;;;17.48;2.22;;;;;;;12.61;100.00;99612.81;5023493;28;20107;-82
2022/10/31 01:24:55;;;;;;;8.80;1.90;;;;;;;12.57;100.00;99616.13;4991321;28;20479;-78
2022/10/31 01:27:21;;;;;;;12.45;2.38;;;;;;;12.49;100.00;99612.69;5003719;28;20048;-81
2022/10/31 01:29:46;;;;;;;8.18;1.52;;;;;;;12.42;100.00;99611.88;5020188;28;20038;-79
2022/10/31 01:32:12;;;;;;;5.35;1.83;;;;;;;12.40;100.00;99607.75;5024056;28;20037;-78
2022/10/31 01:34:38;;;;;;;11.68;3.08;;;;;;;12.48;100.00;99605.63;4986358;28;20026;-78
2022/10/31 01:37:03;;;;;;;13.25;2.63;;;;;;;12.48;100.00;99599.41;4991632;28;20502;-81
2022/10/31 01:39:29;;;;;;;9.93;1.80;;;;;;;12.54;100.00;99598.53;5002262;28;21189;-77
2022/10/31 01:41:55;;;;;;;12.38;1.80;;;;;;;12.62;100.00;99614.47;5010341;28;20425;-78
2022/10/31 01:44:21;;;;;;;13.98;1.88;;;;;;;12.64;100.00;99598.06;5007105;28;20041;-77
2022/10/31 01:46:50;;;;;;;8.70;2.08;;;;;;;12.57;100.00;99598.13;5004800;28;20038;-79
2022/10/31 01:49:33;;;;;;;9.20;2.92;;;;;;;12.57;100.00;99586.47;5001330;28;20037;-78
2022/10/31 01:52:01;;;;;;;10.48;2.47;;;;;;;12.62;100.00;99594.75;5016195;28;20131;-78
2022/10/31 01:54:35;;;;;;;10.00;1.92;;;;;;;12.73;100.00;99602.16;5015327;28;20054;-78
2022/10/31 01:57:01;;;;;;;21.38;2.80;;;;;;;12.82;100.00;99586.53;5009215;28;20428;-77
2022/10/31 01:59:29;;;;;;;8.32;1.50;;;;;;;12.93;100.00;99569.63;5017384;28;20037;-78
2022/10/31 02:01:55;;;;;;;6.38;1.85;;;;;;;12.91;100.00;99564.47;5017861;28;20042;-77
2022/10/31 02:04:23;;;;;;;7.95;2.58;;;;;;;13.11;100.00;99593.13;5001338;28;20078;-77
2022/10/31 02:07:02;;;;;;;11.85;2.42;;;;;;;13.12;100.00;99592.91;5022371;28;20045;-77
2022/10/31 02:09:31;;;;;;;6.05;1.38;;;;;;;13.10;100.00;99572.59;4991949;28;20053;-77
2022/10/31 02:11:58;;;;;;;9.07;1.65;;;;;;;13.16;100.00;99580.63;5005201;28;20073;-79
2022/10/31 02:14:25;;;;;;;8.52;2.00;;;;;;;13.26;100.00;99590.97;5021252;28;20467;-78
2022/10/31 02:16:51;;;;;;;10.25;2.45;;;;;;;13.35;100.00;99575.31;5026044;28;20041;-77
2022/10/31 02:19:27;;;;;;;8.98;1.90;;;;;;;13.41;100.00;99580.63;5003923;28;20033;-79
2022/10/31 02:22:06;;;;;;;10.88;2.13;;;;;;;13.40;100.00;99587.06;5021219;28;20045;-79
2022/10/31 02:24:43;;;;;;;11.27;1.92;;;;;;;13.36;100.00;99575.09;5013856;28;20171;-78
2022/10/31 02:27:27;;;;;;;13.90;2.47;;;;;;;13.39;100.00;99581.91;5009899;28;20098;-78
2022/10/31 02:30:01;;;;;;;10.23;2.05;;;;;;;13.34;100.00;99579.06;5009516;28;20060;-77
2022/10/31 02:32:30;;;;;;;8.27;2.00;;;;;;;13.32;100.00;99573.06;5024821;28;20045;-78
2022/10/31 02:35:41;;;;;;;4.38;1.40;;;;;;;13.36;100.00;99579.63;5014892;28;20086;-77
2022/10/31 02:38:14;;;;;;;11.90;2.40;;;;;;;13.26;100.00;99563.09;4987129;28;20049;-78
2022/10/31 02:40:51;;;;;;;15.05;2.70;;;;;;;13.39;100.00;99573.81;5020141;28;20064;-77
2022/10/31 02:43:41;;;;;;;11.63;2.10;;;;;;;13.32;100.00;99567.66;5018268;28;20108;-78
2022/10/31 02:46:23;;;;;;;8.63;2.55;;;;;;;13.35;100.00;99551.81;5007054;28;20061;-79
2022/10/31 02:48:51;;;;;;;7.03;2.30;;;;;;;13.31;100.00;99552.47;5024860;28;20033;-81
2022/10/31 02:51:17;;;;;;;4.40;2.05;;;;;;;13.30;100.00;99543.56;4998450;28;20281;-79
2022/10/31 02:53:43;;;;;;;8.27;1.73;;;;;;;13.39;100.00;99558.44;5015540;28;21869;-81
2022/10/31 02:56:15;;;;;;;8.63;1.88;;;;;;;13.39;100.00;99541.41;5020997;28;20221;-78
2022/10/31 02:58:51;;;;;;;11.18;2.58;;;;;;;13.40;100.00;99537.66;5015837;28;20056;-78
2022/10/31 03:01:19;;;;;;;9.27;1.92;;;;;;;13.43;100.00;99542.59;4981746;28;20131;-80
2022/10/31 03:04:06;;;;;;;9.65;1.67;;;;;;;13.41;100.00;99550.09;5017421;28;20059;-79
2022/10/31 03:06:43;;;;;;;5.30;1.60;;;;;;;13.32;100.00;99533.38;5017317;28;20375;-78
2022/10/31 03:09:11;;;;;;;13.48;2.67;;;;;;;13.40;100.00;99534.97;5023204;28;20033;-78
2022/10/31 03:11:50;;;;;;;10.82;2.47;;;;;;;13.41;100.00;99540.13;5006554;28;20450;-78
2022/10/31 03:14:35;;;;;;;17.58;3.25;;;;;;;13.41;100.00;99520.41;4985382;28;20042;-78
2022/10/31 03:17:04;;;;;;;8.52;2.33;;;;;;;13.44;100.00;99528.03;4985131;28;20120;-78
2022/10/31 03:19:34;;;;;;;9.18;2.30;;;;;;;13.46;100.00;99511.63;5015171;28;20057;-79
2022/10/31 03:22:03;;;;;;;6.13;1.77;;;;;;;13.41;100.00;99507.72;5002487;28;20082;-80
2022/10/31 03:24:32;;;;;;;7.70;1.58;;;;;;;13.47;100.00;99508.72;5016232;28;20056;-79
2022/10/31 03:26:59;;;;;;;4.72;1.33;;;;;;;13.36;100.00;99472.50;5004529;28;20030;-78
2022/10/31 03:29:28;;;;;;;10.20;1.77;;;;;;;13.43;100.00;99485.91;5003033;28;20407;-78
2022/10/31 03:32:04;;;;;;;13.23;1.83;;;;;;;13.38;100.00;99499.25;5007274;28;20087;-80
2022/10/31 03:34:30;;;;;;;10.65;2.53;;;;;;;13.25;100.00;99497.47;5002582;28;20069;-79
2022/10/31 03:37:00;;;;;;;5.07;1.27;;;;;;;13.19;100.00;99509.19;5025650;28;20048;-77
2022/10/31 03:39:27;;;;;;;15.07;2.40;;;;;;;13.19;100.00;99510.00;5022420;28;20033;-76
2022/10/31 03:42:17;;;;;;;10.18;2.17;;;;;;;13.12;100.00;99505.72;5002977;28;20112;-79
2022/10/31 03:44:47;;;;;;;7.65;1.50;;;;;;;13.08;100.00;99512.63;5004604;28;20021;-80
2022/10/31 03:47:12;;;;;;;9.50;2.35;;;;;;;13.10;100.00;99503.25;5013401;28;20030;-77
2022/10/31 03:49:39;;;;;;;5.97;1.40;;;;;;;13.11;100.00;99494.09;4981438;28;20080;-80
2022/10/31 03:52:27;;;;;;;4.70;1.73;;;;;;;13.07;100.00;99490.22;4998589;28;20402;-77
2022/10/31 03:54:59;;;;;;;6.57;1.90;;;;;;;13.03;100.00;99483.59;5023802;28;20378;-78
2022/10/31 03:57:29;;;;;;;15.45;2.10;;;;;;;13.07;100.00;99484.81;5021792;28;20966;-78
2022/10/31 04:00:00;;;;;;;8.63;1.90;;;;;;;13.06;100.00;99490.44;4998478;28;20040;-78
2022/10/31 04:02:29;;;;;;;9.60;2.67;;;;;;;13.08;100.00;99483.75;4977956;28;20120;-79
2022/10/31 04:04:55;;;;;;;11.15;2.20;;;;;;;13.09;100.00;99488.09;5025314;28;20121;-78
2022/10/31 04:07:23;;;;;;;7.50;1.90;;;;;;;12.96;100.00;99463.94;5020036;28;20037;-77
2022/10/31 04:09:50;;;;;;;8.45;1.92;;;;;;;13.04;100.00;99476.31;5002226;28;20511;-79
2022/10/31 04:12:16;;;;;;;8.82;1.75;;;;;;;13.09;100.00;99474.59;4999937;28;20033;-78
2022/10/31 04:14:45;;;;;;;11.30;1.95;;;;;;;12.92;100.00;99470.84;5015616;28;20156;-78
2022/10/31 04:17:14;;;;;;;15.48;2.85;;;;;;;13.05;100.00;99475.31;5006213;28;20037;-77
2022/10/31 04:19:40;;;;;;;9.25;2.45;;;;;;;13.00;100.00;99473.25;4999111;28;20045;-78
2022/10/31 04:22:06;;;;;;;6.45;2.13;;;;;;;12.96;100.00;99472.88;5010412;28;20029;-76
2022/10/31 04:24:31;;;;;;;12.05;2.38;;;;;;;13.07;100.00;99478.56;5023143;28;20468;-79
2022/10/31 04:26:57;;;;;;;4.53;1.52;;;;;;;13.06;100.00;99466.16;5007657;28;20069;-80
2022/10/31 04:29:22;;;;;;;11.02;1.88;;;;;;;13.12;100.00;99482.25;5015806;28;20120;-79
2022/10/31 04:31:50;;;;;;;6.05;1.70;;;;;;;13.19;100.00;99476.78;5016846;28;20318;-80
2022/10/31 04:34:16;;;;;;;5.82;1.60;;;;;;;13.22;100.00;99467.44;5023426;28;20148;-78
2022/10/31 04:36:42;;;;;;;8.07;1.92;;;;;;;13.17;100.00;99446.50;5000352;28;20174;-78
2022/10/31 04:39:07;;;;;;;7.72;1.83;;;;;;;13.23;100.00;99461.81;5020745;28;20402;-78
2022/10/31 04:41:33;;;;;;;4.28;1.25;;;;;;;13.15;100.00;99460.25;5022527;28;20571;-76
2022/10/31 04:43:58;;;;;;;8.55;1.92;;;;;;;12.98;100.00;99461.84;5005988;28;20073;-76
2022/10/31 04:46:24;;;;;;;4.78;2.00;;;;;;;12.90;100.00;99476.47;5023953;28;20022;-77
2022/10/31 04:48:50;;;;;;;5.45;1.42;;;;;;;12.86;100.00;99469.03;5017478;28;20176;-80
2022/10/31 04:51:15;;;;;;;12.48;2.30;;;;;;;12.94;100.00;99482.25;5022508;28;20528;-77
2022/10/31 04:53:41;;;;;;;8.13;1.75;;;;;;;12.86;100.00;99461.78;4982973;28;20037;-78
2022/10/31 04:56:06;;;;;;;5.38;1.77;;;;;;;12.83;100.00;99458.69;4992128;28;20040;-77
2022/10/31 04:58:34;;;;;;;4.57;1.73;;;;;;;12.95;100.00;99471.22;5004598;28;20037;-77
2022/10/31 05:01:00;;;;;;;10.77;2.55;;;;;;;13.06;100.00;99487.72;5021598;28;20045;-78
2022/10/31 05:03:25;;;;;;;4.30;1.55;;;;;;;12.98;100.00;99465.38;5004688;28;20076;-77
2022/10/31 05:05:51;;;;;;;5.07;1.58;;;;;;;13.12;100.00;99484.13;5015772;28;20108;-78
2022/10/31 05:08:17;;;;;;;7.75;1.98;;;;;;;12.98;100.00;99459.97;4991483;28;20046;-79
2022/10/31 05:10:42;;;;;;;12.13;2.08;;;;;;;13.13;100.00;99486.63;5024005;28;20034;-79
2022/10/31 05:13:08;;;;;;;12.13;2.20;;;;;;;13.06;100.00;99461.56;4998952;28;20472;-76
2022/10/31 05:15:34;;;;;;;7.80;1.65;;;;;;;13.11;100.00;99469.81;5002933;28;20136;-77
2022/10/31 05:18:00;;;;;;;13.75;2.30;;;;;;;13.11;100.00;99469.00;4988521;28;20030;-81
2022/10/31 05:20:27;;;;;;;9.73;1.80;;;;;;;13.11;100.00;99486.00;4987881;28;20037;-76
2022/10/31 05:22:55;;;;;;;5.15;1.50;;;;;;;13.22;100.00;99513.31;5024236;28;20116;-78
2022/10/31 05:25:22;;;;;;;6.25;1.40;;;;;;;13.30;100.00;99532.75;5019525;28;20497;-80
2022/10/31 05:27:50;;;;;;;2.78;0.75;;;;;;;12.80;100.00;99526.56;5025805;28;20116;-81
2022/10/31 05:30:18;;;;;;;0.40;0.40;;;;;;;12.25;100.00;99532.56;5023671;28;20111;-78
2022/10/31 05:32:46;;;;;;;0.40;0.40;;;;;;;11.87;100.00;99525.31;5022755;28;20478;-79
2022/10/31 05:35:15;;;;;;;0.30;0.30;;;;;;;11.50;100.00;99525.00;5040599;28;20116;-79
2022/10/31 05:37:40;;;;;;;0.30;0.30;;;;;;;11.32;100.00;99530.22;5012377;28;20078;-78
2022/10/31 05:40:08;;;;;;;0.30;0.30;;;;;;;11.21;100.00;99535.22;5008830;28;20044;-77
2022/10/31 05:42:34;;;;;;;0.20;0.20;;;;;;;11.11;100.00;99525.91;5013296;28;20033;-79
2022/10/31 05:44:59;;;;;;;0.30;0.30;;;;;;;11.03;100.00;99521.59;4993510;28;20037;-80
2022/10/31 05:47:27;;;;;;;0.30;0.30;;;;;;;10.98;100.00;99518.69;5020113;28;20040;-77
2022/10/31 05:49:53;;;;;;;0.22;0.22;;;;;;;10.92;100.00;99506.09;5022928;28;20064;-77
2022/10/31 05:52:19;;;;;;;0.40;0.40;;;;;;;10.84;100.00;99507.13;5009806;28;20147;-77
2022/10/31 05:54:44;;;;;;;0.30;0.30;;;;;;;10.88;100.00;99516.44;4988207;28;20037;-79
2022/10/31 05:57:10;;;;;;;0.30;0.30;;;;;;;10.87;100.00;99517.47;5020786;28;20037;-79
2022/10/31 05:59:36;;;;;;;0.20;0.20;;;;;;;10.74;100.00;99528.22;5021062;28;20037;-78
2022/10/31 06:02:01;;;;;;;0.30;0.30;;;;;;;10.70;100.00;99537.75;5008697;28;20033;-77
2022/10/31 06:04:27;;;;;;;0.30;0.30;;;;;;;10.48;100.00;99526.38;5024887;28;20546;-78
2022/10/31 06:06:53;;;;;;;0.30;0.30;;;;;;;10.35;100.00;99537.94;5013968;28;20041;-77
2022/10/31 06:09:18;;;;;;;0.30;0.30;;;;;;;10.24;100.00;99525.03;4995706;28;20026;-78
2022/10/31 06:11:44;;;;;;;0.30;0.30;;;;;;;10.31;100.00;99553.63;5013771;28;20029;-77
2022/10/31 06:14:09;;;;;;;0.30;0.30;;;;;;;10.23;100.00;99547.56;4997659;28;20048;-77
2022/10/31 06:16:35;;;;;;;0.30;0.30;;;;;;;10.19;100.00;99541.78;5016864;28;20442;-78
2022/10/31 06:19:00;;;;;;;0.30;0.30;;;;;;;10.20;100.00;99545.31;5023744;28;20114;-77
2022/10/31 06:21:26;;;;;;;0.30;0.30;;;;;;;10.11;100.00;99545.50;5009359;28;20116;-79
2022/10/31 06:23:52;;;;;;;0.20;0.20;;;;;;;10.06;100.00;99539.91;5001484;28;20119;-77
2022/10/31 06:26:17;;;;;;;0.30;0.30;;;;;;;10.07;100.00;99549.59;4995640;28;20068;-79
2022/10/31 06:28:43;;;;;;;0.30;0.30;;;;;;;10.02;100.00;99557.44;4990579;28;20029;-77
2022/10/31 06:31:08;;;;;;;0.30;0.30;;;;;;;10.03;100.00;99559.09;4991553;28;20160;-78
2022/10/31 06:33:34;;;;;;;0.30;0.30;;;;;;;10.00;100.00;99564.88;5024567;28;20448;-79
2022/10/31 06:36:00;;;;;;;0.30;0.30;;;;;;;10.00;100.00;99556.81;4992362;28;20034;-77
2022/10/31 06:38:26;;;;;;;0.30;0.30;;;;;;;10.00;100.00;99542.53;5026479;28;20159;-80
2022/10/31 06:40:53;;;;;;;0.30;0.30;;;;;;;9.92;100.00;99535.50;5023185;28;20479;-79
2022/10/31 06:43:19;;;;;;;0.30;0.30;;;;;;;9.95;100.00;99558.44;5015137;28;20041;-77
2022/10/31 06:45:45;;;;;;;0.38;0.38;;;;;;;9.88;100.00;99550.38;5023111;28;20137;-78
2022/10/31 06:48:11;;;;;;;0.30;0.30;;;;;;;9.95;100.00;99578.09;5010952;28;20033;-78
2022/10/31 06:50:36;;;;;;;0.40;0.40;;;;;;;9.96;100.00;99585.09;5022566;28;20037;-79
2022/10/31 06:53:02;;;;;;;0.40;0.40;;;;;;;9.89;100.00;99578.88;4995677;28;20034;-78
2022/10/31 06:55:27;;;;;;;0.30;0.30;;;;;;;9.94;100.00;99589.84;5024295;28;20063;-78
2022/10/31 06:57:57;;;;;;;0.30;0.30;;;;;;;9.96;100.00;99585.09;4992339;28;20061;-77
2022/10/31 07:00:23;;;;;;;0.30;0.30;;;;;;;9.95;100.00;99604.94;5004381;28;20132;-78
2022/10/31 07:03:00;;;;;;;0.30;0.30;;;;;;;9.96;100.00;99603.91;5030338;28;20253;-76
2022/10/31 07:05:26;;;;;;;0.30;0.30;;;;;;;9.93;100.00;99606.97;5005339;28;20542;-79
2022/10/31 07:07:57;;;;;;;0.30;0.30;;;;;;;9.91;100.00;99585.69;5026286;28;20114;-77
2022/10/31 07:10:24;;;;;;;0.30;0.30;;;;;;;9.88;100.00;99585.28;5007696;28;20365;-81
2022/10/31 07:13:01;;;;;;;0.40;0.40;;;;;;;9.73;100.00;99571.97;5004554;28;20038;-76
2022/10/31 07:15:29;;;;;;;0.30;0.30;;;;;;;9.79;100.00;99578.41;5002251;28;20156;-79
2022/10/31 07:18:01;;;;;;;0.30;0.30;;;;;;;9.71;100.00;99592.00;5029698;28;20026;-76
2022/10/31 07:20:27;;;;;;;0.40;0.40;;;;;;;9.66;100.00;99600.66;4998108;28;20068;-79
2022/10/31 07:22:53;;;;;;;0.30;0.30;;;;;;;9.43;100.00;99566.06;5000538;28;20037;-77
2022/10/31 07:25:18;;;;;;;0.30;0.30;;;;;;;9.51;100.00;99589.22;5010048;28;20041;-78
2022/10/31 07:27:44;;;;;;;0.30;0.30;;;;;;;9.48;100.00;99593.13;4992251;28;20571;-76
2022/10/31 07:30:11;;;;;;;0.30;0.30;;;;;;;9.46;100.00;99585.25;4990602;28;20060;-84
2022/10/31 07:32:40;;;;;;;0.35;0.35;;;;;;;9.35;100.00;99572.41;5011719;28;20079;-77
2022/10/31 07:35:08;;;;;;;0.40;0.40;;;;;;;9.40;100.00;99593.28;5007780;28;20030;-77
2022/10/31 07:37:33;;;;;;;0.30;0.30;;;;;;;9.35;100.00;99585.00;4993029;28;20103;-77
2022/10/31 07:39:59;;;;;;;0.30;0.30;;;;;;;9.34;100.00;99607.44;4988680;28;20335;-78
2022/10/31 07:42:25;;;;;;;0.30;0.30;;;;;;;9.32;100.00;99604.16;5029263;28;20087;-78
2022/10/31 07:44:50;;;;;;;0.25;0.25;;;;;;;9.32;100.00;99615.72;4992059;28;20136;-79
2022/10/31 07:47:16;;;;;;;0.30;0.30;;;;;;;9.34;100.00;99612.81;5007523;28;20033;-79
2022/10/31 07:49:44;;;;;;;0.30;0.30;;;;;;;9.32;100.00;99607.66;4995777;28;20507;-81
2022/10/31 07:52:10;;;;;;;0.30;0.30;;;;;;;9.37;100.00;99599.03;5010913;28;20584;-78
2022/10/31 07:54:36;;;;;;;0.30;0.30;;;;;;;9.43;100.00;99604.44;5027186;28;20136;-79
2022/10/31 07:57:01;;;;;;;0.30;0.30;;;;;;;9.45;100.00;99614.97;5009206;28;20153;-79
2022/10/31 07:59:27;;;;;;;0.30;0.30;;;;;;;9.35;100.00;99606.44;5003398;28;20384;-78
2022/10/31 08:01:53;;;;;;;0.30;0.30;;;;;;;9.41;100.00;99611.03;5025568;28;20427;-81
2022/10/31 08:04:18;;;;;;;0.40;0.40;;;;;;;9.40;100.00;99622.78;5026222;28;20399;-79
2022/10/31 08:06:44;;;;;;;0.30;0.30;;;;;;;9.38;100.00;99627.50;5011980;28;20087;-78
2022/10/31 08:09:09;;;;;;;0.30;0.30;;;;;;;9.39;100.00;99654.16;5007328;28;20475;-79
2022/10/31 08:11:35;;;;;;;0.30;0.30;;;;;;;9.39;100.00;99669.41;4996128;28;20484;-80
2022/10/31 08:14:01;;;;;;;0.30;0.30;;;;;;;9.33;100.00;99651.41;5022388;28;20419;-80
2022/10/31 08:16:27;;;;;;;0.30;0.30;;;;;;;9.37;100.00;99650.00;5022514;28;20037;-78
2022/10/31 08:18:55;;;;;;;0.30;0.30;;;;;;;9.37;100.00;99650.84;4992800;28;20131;-78
2022/10/31 08:21:21;;;;;;;0.30;0.30;;;;;;;9.37;100.00;99639.28;5010499;28;20048;-77
2022/10/31 08:23:46;;;;;;;0.30;0.30;;;;;;;9.42;100.00;99653.75;4990188;28;20399;-79
2022/10/31 08:26:12;;;;;;;0.30;0.30;;;;;;;9.44;100.00;99643.63;5020623;28;20077;-80
2022/10/31 08:28:38;;;;;;;0.30;0.30;;;;;;;9.44;100.00;99672.34;4982868;28;20030;-81
2022/10/31 08:31:04;;;;;;;0.30;0.30;;;;;;;9.44;100.00;99669.66;5020264;28;20034;-79
2022/10/31 08:33:30;;;;;;;0.30;0.30;;;;;;;9.42;100.00;99663.66;5024688;28;20391;-82
2022/10/31 08:35:58;;;;;;;0.40;0.40;;;;;;;9.47;100.00;99650.47;5021053;28;20049;-78
2022/10/31 08:38:23;;;;;;;0.30;0.30;;;;;;;9.54;100.00;99646.00;5003549;28;20041;-76
2022/10/31 08:40:49;;;;;;;0.30;0.30;;;;;;;9.55;100.00;99646.81;5023206;28;20087;-79
2022/10/31 08:43:16;;;;;;;0.30;0.30;;;;;;;9.63;100.00;99639.47;4991556;28;20038;-79
2022/10/31 08:45:43;;;;;;;0.40;0.40;;;;;;;9.68;100.00;99626.28;5004225;28;20041;-78
2022/10/31 08:48:11;;;;;;;0.30;0.30;;;;;;;9.74;100.00;99616.59;5003901;28;20040;-77
2022/10/31 08:50:40;;;;;;;0.40;0.40;;;;;;;9.81;100.00;99619.31;4982652;28;20029;-79
2022/10/31 08:53:17;;;;;;;0.30;0.30;;;;;;;9.80;100.00;99612.28;5004176;28;20087;-78
2022/10/31 08:55:43;;;;;;;0.38;0.38;;;;;;;9.90;100.00;99612.75;5020388;28;20599;-78
2022/10/31 08:58:14;;;;;;;0.30;0.30;;;;;;;9.89;100.00;99594.97;5019613;28;20036;-78
2022/10/31 09:00:40;;;;;;;0.35;0.35;;;;;;;9.82;100.00;99624.50;5025521;28;20025;-77
2022/10/31 09:03:09;;;;;;;0.30;0.30;;;;;;;9.74;100.00;99629.16;4986128;28;20037;-80
2022/10/31 09:05:34;;;;;;;0.30;0.30;;;;;;;9.71;100.00;99641.13;5048014;28;20144;-78
2022/10/31 09:08:02;;;;;;;0.38;0.38;;;;;;;9.77;100.00;99687.84;5024565;28;20446;-79
2022/10/31 09:10:29;;;;;;;0.40;0.40;;;;;;;9.77;100.00;99698.59;5006291;28;20033;-79
2022/10/31 09:12:59;;;;;;;0.30;0.30;;;;;;;9.73;100.00;99698.13;4993566;28;20044;-79
2022/10/31 09:15:26;;;;;;;0.40;0.40;;;;;;;9.84;100.00;99708.34;5006628;28;20116;-77
2022/10/31 09:17:52;;;;;;;0.30;0.30;;;;;;;9.88;100.00;99696.19;5027108;28;20033;-79
2022/10/31 09:20:18;;;;;;;0.30;0.30;;;;;;;9.88;100.00;99680.06;5010029;28;20032;-80
2022/10/31 09:22:44;;;;;;;0.30;0.30;;;;;;;9.95;100.00;99700.75;5026228;28;20049;-76
2022/10/31 09:25:09;;;;;;;0.30;0.30;;;;;;;9.97;100.00;99709.44;4994729;28;20069;-79
2022/10/31 09:27:35;;;;;;;0.40;0.40;;;;;;;9.93;100.00;99725.13;5003854;28;20212;-78
2022/10/31 09:30:01;;;;;;;0.30;0.30;;;;;;;9.93;100.00;99711.72;5008117;28;20040;-77
2022/10/31 09:32:26;;;;;;;0.30;0.30;;;;;;;9.97;100.00;99706.75;5007066;28;20045;-78
2022/10/31 09:34:52;;;;;;;0.40;0.40;;;;;;;10.04;100.00;99695.03;5001507;28;20384;-80
2022/10/31 09:37:18;;;;;;;0.30;0.30;;;;;;;10.18;100.00;99684.34;5028052;28;20048;-80
2022/10/31 09:39:43;;;;;;;0.65;0.65;;;;;;;10.23;100.00;99658.53;5010969;28;20041;-77
2022/10/31 09:42:33;;;;;;;0.40;0.40;;;;;;;10.27;100.00;99692.09;5010831;28;20133;-78
2022/10/31 09:45:18;;;;;;;0.40;0.40;;;;;;;10.33;100.00;99683.22;5022444;28;20458;-82
2022/10/31 09:48:03;;;;;;;0.40;0.40;;;;;;;10.40;100.00;99677.03;5006907;28;20064;-77
2022/10/31 09:50:32;;;;;;;0.30;0.30;;;;;;;10.43;100.00;99677.47;5010006;28;20061;-80
2022/10/31 09:53:22;;;;;;;0.30;0.30;;;;;;;10.41;100.00;99671.47;5027871;28;20496;-79
2022/10/31 09:55:49;;;;;;;0.40;0.40;;;;;;;10.47;100.00;99684.09;5021310;28;20041;-78
2022/10/31 09:58:25;;;;;;;0.40;0.40;;;;;;;10.44;100.00;99692.56;5028324;28;20037;-79
2022/10/31 10:00:52;;;;;;;0.40;0.40;;;;;;;10.39;100.00;99689.63;5023689;28;20025;-83
2022/10/31 10:03:50;;;;;;;0.40;0.40;;;;;;;10.54;100.00;99681.44;4993336;28;20059;-83
2022/10/31 10:06:22;;;;;;;0.30;0.30;;;;;;;10.67;100.00;99665.34;5010920;28;20488;-83
2022/10/31 10:08:48;;;;;;;0.30;0.30;;;;;;;10.71;100.00;99669.25;5028708;28;20490;-83
2022/10/31 10:11:39;;;;;;;0.40;0.40;;;;;;;10.59;100.00;99702.34;4996321;28;20296;-83
2022/10/31 10:14:22;;;;;;;0.30;0.30;;;;;;;10.51;100.00;99695.28;5020091;28;20140;-82
2022/10/31 10:17:25;;;;;;;0.30;0.30;;;;;;;10.57;100.00;99657.66;5009512;28;20037;-83
2022/10/31 10:20:21;;;;;;;0.30;0.30;;;;;;;10.60;100.00;99660.97;5012726;28;20098;-83
2022/10/31 10:23:16;;;;;;;0.40;0.40;;;;;;;10.55;100.00;99648.13;5015197;28;20033;-82
2022/10/31 10:25:43;;;;;;;0.40;0.40;;;;;;;10.31;100.00;99668.31;5034217;28;20053;-85
2022/10/31 10:28:42;;;;;;;0.30;0.30;;;;;;;10.27;100.00;99678.66;5010323;28;20468;-82
2022/10/31 10:31:15;;;;;;;0.40;0.40;;;;;;;10.29;100.00;99671.22;5028103;28;20069;-80
2022/10/31 10:34:00;;;;;;;0.40;0.40;;;;;;;10.42;100.00;99669.59;5021718;28;20038;-79
2022/10/31 10:36:49;;;;;;;0.30;0.30;;;;;;;10.38;100.00;99666.50;5043858;28;20172;-82
2022/10/31 10:39:21;;;;;;;0.38;0.38;;;;;;;10.43;100.00;99687.41;5009349;28;20647;-80
2022/10/31 10:47:42;;;;;;;0.40;0.40;;;;;;;10.47;100.00;99710.13;5013916;28;20415;-81
2022/10/31 10:50:19;;;;;;;0.30;0.30;;;;;;;10.57;100.00;99694.47;5025657;28;20064;-82
2022/10/31 10:52:59;;;;;;;0.40;0.40;;;;;;;10.66;100.00;99681.66;5045157;28;20045;-81
2022/10/31 10:55:40;;;;;;;0.40;0.40;;;;;;;10.82;100.00;99691.22;5014387;28;20029;-81
2022/10/31 10:58:09;;;;;;;0.30;0.30;;;;;;;10.86;100.00;99695.16;5009833;28;20030;-80
2022/10/31 11:00:46;;;;;;;0.30;0.30;;;;;;;10.96;100.00;99693.75;5025588;28;20537;-80
2022/10/31 11:03:12;;;;;;;0.40;0.40;;;;;;;10.99;100.00;99684.44;5028284;28;20052;-83
2022/10/31 11:05:42;;;;;;;0.40;0.40;;;;;;;10.95;100.00;99677.78;5028031;28;20191;-80
2022/10/31 11:08:08;;;;;;;0.40;0.40;;;;;;;11.09;100.00;99692.13;5010477;28;20032;-83
2022/10/31 11:10:34;;;;;;;0.30;0.30;;;;;;;11.25;100.00;99678.25;5025950;28;20056;-81
2022/10/31 11:13:18;;;;;;;0.38;0.38;;;;;;;11.36;100.00;99650.72;5001724;28;20036;-81
2022/10/31 11:16:03;;;;;;;0.32;0.32;;;;;;;11.68;100.00;99679.69;5025628;28;20064;-80
2022/10/31 11:18:31;;;;;;;0.40;0.40;;;;;;;11.72;100.00;99678.19;5009078;28;20033;-80
2022/10/31 11:20:59;;;;;;;0.50;0.50;;;;;;;11.68;100.00;99679.69;5023232;28;20036;-83
2022/10/31 11:23:27;;;;;;;0.40;0.40;;;;;;;11.48;100.00;99682.38;4995100;28;20026;-81
2022/10/31 11:25:58;;;;;;;0.40;0.40;;;;;;;11.50;100.00;99688.38;5024517;28;20033;-81
2022/10/31 11:28:25;;;;;;;0.30;0.30;;;;;;;11.45;100.00;99697.91;5009465;28;20112;-81
2022/10/31 11:30:54;;;;;;;0.40;0.40;;;;;;;11.28;100.00;99677.84;4995078;28;20037;-80
2022/10/31 11:33:23;;;;;;;0.40;0.40;;;;;;;11.24;100.00;99695.41;5012741;28;20029;-80
2022/10/31 11:35:49;;;;;;;0.35;0.35;;;;;;;11.19;100.00;99676.38;5004516;28;20396;-84
2022/10/31 11:38:21;;;;;;;0.30;0.30;;;;;;;11.28;100.00;99675.16;5026615;28;20480;-82
2022/10/31 11:41:29;;;;;;;0.40;0.40;;;;;;;11.22;100.00;99657.16;5000829;28;20065;-79
2022/10/31 11:44:15;;;;;;;0.30;0.30;;;;;;;11.08;100.00;99648.22;4972060;28;20038;-83